Time;durP1;ratioP1;P1;durP2;ratioP2;P2;SDS_P1;SDS_P2;PMS_P1;PMS_P2;Temp;Humidity;BMP_temperature;BMP_pressure;BME280_temperature;BME280_humidity;BME280_pressure;Samples;Min_cycle;Max_cycle;Signal;HPM_P1;HPM_P2
2022/07/12 03:59:03;;;;;;;1.10;1.10;;;;;;;15.30;58.68;100819.84;5892091;27;20397;-86
2022/07/12 04:02:07;;;;;;;1.17;1.17;;;;;;;15.34;58.36;100824.66;5362883;33;33969;-87
2022/07/12 04:05:11;;;;;;;1.25;1.15;;;;;;;15.45;58.15;100830.59;5369729;33;34675;-85
2022/07/12 04:08:13;;;;;;;1.65;1.27;;;;;;;15.52;57.95;100836.87;5363288;33;34750;-85
2022/07/12 04:11:16;;;;;;;1.17;1.10;;;;;;;15.61;57.63;100830.25;5362023;33;34166;-85
2022/07/12 04:14:19;;;;;;;1.40;1.05;;;;;;;15.73;57.33;100833.28;5366239;33;34008;-85
2022/07/12 04:17:22;;;;;;;3.70;1.30;;;;;;;15.80;57.03;100828.72;5379166;33;33570;-86
2022/07/12 04:20:24;;;;;;;0.98;0.95;;;;;;;15.88;56.83;100825.81;5376709;33;34226;-85
2022/07/12 04:23:27;;;;;;;1.95;1.20;;;;;;;15.92;56.67;100827.13;5366558;33;35046;-85
2022/07/12 04:26:30;;;;;;;1.58;1.30;;;;;;;16.02;56.38;100833.00;5364560;33;33799;-85
2022/07/12 04:29:33;;;;;;;0.77;0.77;;;;;;;16.08;56.28;100825.91;5368079;33;34414;-85
2022/07/12 04:32:35;;;;;;;1.12;1.00;;;;;;;16.18;56.08;100831.81;5366622;33;33971;-85
2022/07/12 04:35:38;;;;;;;0.93;0.93;;;;;;;16.23;55.89;100826.63;5381585;33;33864;-85
2022/07/12 04:38:41;;;;;;;1.17;1.08;;;;;;;16.30;55.76;100830.19;5385925;33;35010;-85
2022/07/12 04:41:44;;;;;;;1.02;1.02;;;;;;;16.42;55.45;100822.28;5382461;33;33755;-85
2022/07/12 04:49:14;;;;;;;2.28;1.20;;;;;;;16.49;55.47;100828.53;5362072;33;35404;-86
2022/07/12 04:52:17;;;;;;;1.60;1.17;;;;;;;16.78;54.85;100829.25;5377272;33;35425;-84
2022/07/12 04:55:21;;;;;;;1.10;1.00;;;;;;;16.92;54.20;100825.50;5378570;33;34585;-85
2022/07/12 04:58:24;;;;;;;4.30;1.10;;;;;;;17.00;54.12;100827.19;5379752;33;33978;-85
2022/07/12 05:01:29;;;;;;;1.23;0.95;;;;;;;17.14;54.08;100817.13;5381167;33;33854;-85
2022/07/12 05:04:33;;;;;;;1.33;1.23;;;;;;;17.24;53.52;100831.16;5365300;33;33912;-89
2022/07/12 05:07:36;;;;;;;2.75;0.95;;;;;;;17.36;53.13;100817.75;5379214;33;35332;-88
2022/07/12 05:10:39;;;;;;;0.93;0.93;;;;;;;17.43;52.85;100826.72;5382725;33;34142;-88
2022/07/12 05:13:41;;;;;;;0.98;0.98;;;;;;;17.48;52.81;100828.81;5393239;33;34917;-87
2022/07/12 05:16:44;;;;;;;2.17;0.93;;;;;;;17.57;52.54;100825.66;5385376;33;34859;-85
2022/07/12 05:19:47;;;;;;;1.25;1.00;;;;;;;17.72;52.09;100824.56;5363494;33;33907;-85
2022/07/12 05:22:49;;;;;;;1.17;1.08;;;;;;;17.77;52.33;100828.31;5362981;33;33560;-85
2022/07/12 05:25:53;;;;;;;4.62;1.42;;;;;;;17.82;51.97;100830.44;5362897;33;34205;-85
2022/07/12 05:28:55;;;;;;;1.73;1.08;;;;;;;17.92;51.86;100835.44;5362743;33;33519;-85
2022/07/12 05:31:58;;;;;;;2.28;1.33;;;;;;;18.06;51.66;100842.50;5365845;33;33558;-85
2022/07/12 05:35:01;;;;;;;1.80;1.37;;;;;;;18.05;51.55;100833.50;5360108;33;33923;-84
2022/07/12 05:38:04;;;;;;;1.27;1.10;;;;;;;18.16;51.30;100834.69;5362675;33;34097;-85
2022/07/12 05:41:07;;;;;;;2.47;1.08;;;;;;;18.22;51.07;100839.31;5362735;33;33978;-85
2022/07/12 05:44:09;;;;;;;2.78;1.08;;;;;;;18.37;50.77;100847.19;5365280;33;33922;-85
2022/07/12 05:47:12;;;;;;;1.75;0.98;;;;;;;18.55;50.32;100849.19;5375489;33;34938;-85
2022/07/12 05:50:15;;;;;;;5.10;1.42;;;;;;;18.59;49.89;100848.53;5376545;33;34845;-84
2022/07/12 05:53:24;;;;;;;1.25;1.15;;;;;;;18.72;49.49;100855.81;5381074;27;34407;-85
2022/07/12 05:56:27;;;;;;;3.05;0.98;;;;;;;18.71;49.66;100851.38;5378790;33;33784;-85
2022/07/12 05:59:30;;;;;;;2.95;1.30;;;;;;;18.78;49.44;100852.22;5378780;33;34067;-84
2022/07/12 06:02:33;;;;;;;1.62;1.10;;;;;;;18.90;48.67;100851.50;5378511;33;33842;-84
2022/07/12 06:05:36;;;;;;;2.42;1.02;;;;;;;19.11;48.25;100848.41;5377553;33;34052;-84
2022/07/12 06:08:39;;;;;;;1.30;1.10;;;;;;;19.28;47.88;100845.94;5378258;33;33673;-84
2022/07/12 06:11:42;;;;;;;2.83;1.00;;;;;;;19.30;47.87;100837.53;5378267;33;34663;-84
2022/07/12 06:14:44;;;;;;;0.85;0.85;;;;;;;19.67;47.01;100843.91;5379908;33;34181;-84
2022/07/12 06:17:48;;;;;;;4.40;1.10;;;;;;;19.87;46.83;100843.69;5382852;33;35319;-84
2022/07/12 06:20:51;;;;;;;0.70;0.70;;;;;;;19.91;46.39;100842.16;5382169;33;34704;-84
2022/07/12 06:23:54;;;;;;;1.75;1.05;;;;;;;19.98;45.82;100832.00;5364896;33;33104;-84
2022/07/12 06:26:56;;;;;;;1.45;0.77;;;;;;;20.04;45.34;100830.25;5377689;33;34717;-84
2022/07/12 06:29:59;;;;;;;2.10;1.10;;;;;;;20.09;44.92;100841.31;5377752;33;33586;-84
2022/07/12 06:33:02;;;;;;;1.87;0.95;;;;;;;20.39;44.49;100834.00;5377628;33;34438;-84
2022/07/12 06:36:05;;;;;;;1.50;0.73;;;;;;;20.52;43.77;100837.59;5379330;33;35211;-84
2022/07/12 06:39:07;;;;;;;0.62;0.60;;;;;;;20.74;43.23;100837.94;5382009;33;34568;-84
2022/07/12 06:42:10;;;;;;;2.45;1.10;;;;;;;20.93;42.84;100845.00;5385033;33;35504;-84
2022/07/12 06:45:14;;;;;;;2.00;1.05;;;;;;;20.99;42.35;100844.06;5383300;33;34760;-84
2022/07/12 06:48:17;;;;;;;0.70;0.65;;;;;;;21.26;42.43;100843.59;5381057;33;34687;-84
2022/07/12 06:51:20;;;;;;;0.98;0.70;;;;;;;21.11;41.89;100844.06;5366443;33;33544;-84
2022/07/12 06:54:23;;;;;;;0.82;0.50;;;;;;;21.18;41.99;100849.47;5379001;33;34568;-84
2022/07/12 06:57:27;;;;;;;2.95;1.05;;;;;;;21.22;41.40;100837.78;5363959;33;33777;-84
2022/07/12 07:00:30;;;;;;;2.05;0.90;;;;;;;21.55;41.39;100841.03;5362562;33;34063;-84
2022/07/12 07:03:32;;;;;;;1.55;0.80;;;;;;;21.69;41.03;100846.03;5363289;33;34683;-84
2022/07/12 07:06:35;;;;;;;1.50;0.90;;;;;;;21.67;40.59;100842.66;5362940;33;34646;-84
2022/07/12 07:09:38;;;;;;;1.30;0.88;;;;;;;22.08;39.86;100838.06;5361739;33;33733;-84
2022/07/12 07:12:41;;;;;;;1.37;0.62;;;;;;;22.34;39.15;100838.62;5363108;33;33827;-84
2022/07/12 07:15:44;;;;;;;0.82;0.70;;;;;;;22.78;38.53;100836.97;5349891;33;32277;-84
2022/07/12 07:18:47;;;;;;;1.75;0.80;;;;;;;22.85;37.67;100840.41;5359463;33;34646;-84
2022/07/12 07:21:50;;;;;;;1.95;0.70;;;;;;;22.94;37.71;100832.59;5362678;33;34120;-84
2022/07/12 07:24:53;;;;;;;0.70;0.70;;;;;;;23.17;36.98;100831.62;5362474;33;33822;-84
2022/07/12 07:27:56;;;;;;;2.00;0.70;;;;;;;23.27;36.81;100836.44;5364777;33;34287;-84
2022/07/12 07:31:01;;;;;;;2.85;0.80;;;;;;;22.95;37.25;100836.19;5364200;33;34208;-87
2022/07/12 07:34:04;;;;;;;1.00;0.52;;;;;;;22.64;37.82;100832.88;5362871;33;34092;-88
2022/07/12 07:37:08;;;;;;;0.73;0.73;;;;;;;22.65;37.76;100834.53;5361067;33;34187;-88
2022/07/12 07:40:10;;;;;;;1.30;0.93;;;;;;;22.92;37.52;100828.41;5347654;33;33512;-85
2022/07/12 07:43:13;;;;;;;0.70;0.70;;;;;;;23.11;37.16;100829.03;5362607;33;33915;-85
2022/07/12 07:46:16;;;;;;;1.65;0.70;;;;;;;23.14;36.79;100825.78;5361141;33;33941;-84
2022/07/12 07:49:19;;;;;;;0.70;0.70;;;;;;;23.28;36.57;100827.97;5363730;33;33577;-84
2022/07/12 07:52:22;;;;;;;0.88;0.80;;;;;;;23.29;36.28;100828.78;5362700;33;34630;-85
2022/07/12 07:55:24;;;;;;;0.55;0.55;;;;;;;23.09;36.88;100829.28;5367956;33;33915;-86
2022/07/12 07:58:28;;;;;;;1.42;0.85;;;;;;;23.65;36.31;100821.88;5362972;33;33748;-86
2022/07/12 08:01:42;;;;;;;2.33;0.80;;;;;;;23.95;35.44;100818.72;5361769;33;35006;-86
2022/07/12 08:04:45;;;;;;;1.77;0.85;;;;;;;23.99;35.51;100819.87;5360763;33;34195;-85
2022/07/12 08:07:48;;;;;;;1.02;0.88;;;;;;;24.11;34.81;100828.00;5360714;33;34566;-86
2022/07/12 08:10:57;;;;;;;;;;;;;;;24.06;35.23;100822.44;5364985;33;33980;-86
2022/07/12 08:13:59;;;;;;;2.60;0.80;;;;;;;24.09;34.87;100823.84;5363034;33;34397;-86
2022/07/12 08:17:03;;;;;;;1.65;0.80;;;;;;;23.99;35.12;100825.38;5359450;33;34590;-86
2022/07/12 08:20:07;;;;;;;0.57;0.55;;;;;;;23.92;34.91;100816.47;5360701;33;34355;-85
2022/07/12 08:23:29;;;;;;;2.50;0.90;;;;;;;23.90;34.75;100821.44;5360263;33;34163;-86
2022/07/12 08:26:32;;;;;;;2.35;0.75;;;;;;;23.97;34.53;100826.72;5360356;33;33984;-86
2022/07/12 08:29:35;;;;;;;0.62;0.60;;;;;;;24.11;34.61;100822.50;5360224;33;34327;-86
2022/07/12 08:32:43;;;;;;;0.85;0.65;;;;;;;23.98;34.37;100825.62;5358918;27;33490;-86
2022/07/12 08:35:46;;;;;;;0.45;0.40;;;;;;;23.94;34.66;100821.75;5358629;33;33657;-85
2022/07/12 08:38:49;;;;;;;2.15;0.60;;;;;;;24.04;34.43;100812.78;5361775;33;34011;-86
2022/07/12 08:41:52;;;;;;;1.42;0.70;;;;;;;23.98;34.61;100820.13;5350574;33;34075;-86
2022/07/12 08:44:56;;;;;;;0.93;0.60;;;;;;;23.98;34.13;100811.88;5342963;33;34303;-86
2022/07/12 08:47:59;;;;;;;0.60;0.60;;;;;;;24.21;33.90;100811.59;5346539;33;34647;-86
2022/07/12 08:51:09;;;;;;;1.10;0.90;;;;;;;24.27;33.48;100808.91;5352169;33;33725;-86
2022/07/12 08:54:12;;;;;;;1.23;0.73;;;;;;;24.25;33.82;100811.09;5356681;33;34059;-86
2022/07/12 08:57:29;;;;;;;0.47;0.40;;;;;;;24.28;33.46;100808.66;5346871;33;32742;-86
2022/07/12 09:00:32;;;;;;;0.73;0.50;;;;;;;24.35;32.99;100803.78;5364843;33;33266;-86
2022/07/12 09:03:39;;;;;;;0.75;0.60;;;;;;;24.73;32.41;100803.91;5361676;33;33562;-86
2022/07/12 09:06:42;;;;;;;0.70;0.50;;;;;;;24.63;32.00;100799.97;5364650;33;33443;-85
2022/07/12 09:09:48;;;;;;;1.05;0.50;;;;;;;24.68;31.87;100810.19;5353987;33;33215;-85
2022/07/12 09:12:51;;;;;;;0.60;0.60;;;;;;;24.72;32.24;100816.03;5348537;33;34229;-85
2022/07/12 09:16:11;;;;;;;0.62;0.60;;;;;;;24.93;32.33;100808.75;5366228;33;33870;-86
2022/07/12 09:19:19;;;;;;;6.32;0.70;;;;;;;25.10;32.16;100799.25;5345399;33;32731;-86
2022/07/12 09:22:21;;;;;;;4.32;0.98;;;;;;;25.16;32.21;100796.59;5349770;33;33991;-86
2022/07/12 09:25:25;;;;;;;0.60;0.52;;;;;;;25.18;32.54;100802.63;5352568;33;35391;-86
2022/07/12 09:28:28;;;;;;;0.75;0.70;;;;;;;25.07;32.29;100804.47;5380915;33;34046;-86
2022/07/12 09:38:35;;;;;;;1.10;0.77;;;;;;;25.54;31.67;100785.22;5368810;33;34855;-86
2022/07/12 09:41:38;;;;;;;1.48;0.60;;;;;;;25.41;31.10;100787.62;5358681;33;33989;-85
2022/07/12 09:44:42;;;;;;;1.42;0.60;;;;;;;25.05;31.69;100790.94;5361726;33;34554;-86
2022/07/12 09:47:45;;;;;;;0.40;0.40;;;;;;;25.27;31.32;100792.78;5359523;33;33983;-86
2022/07/12 09:50:50;;;;;;;1.12;0.60;;;;;;;25.50;31.35;100794.28;5354428;33;35828;-86
2022/07/12 09:53:54;;;;;;;0.47;0.47;;;;;;;25.44;30.63;100782.41;5342583;33;32362;-85
2022/07/12 09:57:03;;;;;;;6.75;0.82;;;;;;;25.61;30.18;100792.44;5358863;33;34030;-86
2022/07/12 10:00:09;;;;;;;1.23;0.50;;;;;;;25.71;29.98;100785.06;5359178;33;35205;-86
2022/07/12 10:03:12;;;;;;;2.08;0.57;;;;;;;25.92;29.86;100786.00;5359167;33;34272;-86
2022/07/12 10:06:25;;;;;;;0.93;0.50;;;;;;;26.18;29.47;100784.16;5356464;33;34065;-86
2022/07/12 10:09:36;;;;;;;0.90;0.90;;;;;;;26.61;28.84;100781.19;5345541;33;32169;-86
2022/07/12 10:12:40;;;;;;;0.77;0.57;;;;;;;25.95;29.54;100781.88;5360185;33;33641;-86
2022/07/12 10:15:45;;;;;;;1.55;0.60;;;;;;;25.88;30.13;100776.56;5366793;33;34214;-88
2022/07/12 10:18:48;;;;;;;2.40;0.60;;;;;;;26.36;29.49;100771.75;5360013;33;33719;-84
2022/07/12 10:21:53;;;;;;;2.00;0.90;;;;;;;26.70;29.47;100779.53;5360860;33;34570;-84
2022/07/12 10:24:56;;;;;;;0.62;0.62;;;;;;;25.60;30.26;100774.25;5358691;33;33859;-86
2022/07/12 10:28:01;;;;;;;2.37;0.73;;;;;;;25.55;30.19;100778.63;5361380;33;33914;-84
2022/07/12 10:31:07;;;;;;;2.70;0.88;;;;;;;25.16;31.06;100772.59;5360359;33;34006;-85
2022/07/12 10:34:12;;;;;;;1.12;0.80;;;;;;;24.97;31.53;100766.63;5360170;33;33961;-85
2022/07/12 10:37:16;;;;;;;1.70;0.80;;;;;;;25.45;31.23;100772.25;5363878;33;34261;-84
2022/07/12 10:40:25;;;;;;;1.23;1.00;;;;;;;25.59;30.95;100751.31;5368415;28;34306;31
2022/07/12 10:46:59;;;;;;;1.55;0.82;;;;;;;26.95;29.15;100747.50;5343311;33;34335;-85
2022/07/12 10:50:02;;;;;;;1.67;0.95;;;;;;;28.04;27.30;100753.25;5344950;33;34668;-84
2022/07/12 10:53:29;;;;;;;1.67;0.70;;;;;;;28.11;27.66;100745.50;5331094;33;32449;-85
2022/07/12 10:56:55;;;;;;;1.05;0.80;;;;;;;28.10;27.57;100749.34;5332562;33;34656;-86
2022/07/12 10:59:59;;;;;;;1.30;0.60;;;;;;;26.98;28.99;100750.53;5328322;33;32413;-85
2022/07/12 11:03:04;;;;;;;0.40;0.40;;;;;;;26.43;30.04;100763.19;5341922;33;34788;-86
2022/07/12 11:06:09;;;;;;;1.48;1.17;;;;;;;25.42;31.72;100769.97;5343564;33;33636;-87
2022/07/12 11:09:15;;;;;;;6.53;0.60;;;;;;;24.96;32.75;100777.94;5343851;33;34145;-87
2022/07/12 11:12:18;;;;;;;0.45;0.45;;;;;;;24.44;34.85;100777.47;5344539;33;34425;-88
2022/07/12 11:15:25;;;;;;;2.08;0.70;;;;;;;24.16;35.73;100780.44;5343139;33;33968;-87
2022/07/12 11:18:32;;;;;;;1.15;0.60;;;;;;;23.67;36.03;100777.66;5349160;33;34926;-88
2022/07/12 11:21:36;;;;;;;2.67;0.90;;;;;;;23.86;35.69;100783.69;5345637;33;34005;-87
2022/07/12 11:24:38;;;;;;;0.68;0.50;;;;;;;24.87;34.46;100775.66;5394828;27;35237;-87
2022/07/12 11:27:45;;;;;;;2.17;0.80;;;;;;;25.95;32.21;100771.66;5381679;33;33878;-86
2022/07/12 11:30:50;;;;;;;1.42;0.70;;;;;;;27.65;30.00;100764.22;5370733;33;33930;-85
2022/07/12 11:33:53;;;;;;;0.73;0.60;;;;;;;29.15;27.61;100756.31;5349001;33;33296;-86
2022/07/12 11:36:58;;;;;;;0.95;0.47;;;;;;;29.15;27.72;100753.53;5370314;33;34203;-85
2022/07/12 11:40:01;;;;;;;1.40;0.60;;;;;;;29.25;27.94;100741.53;5364670;33;32946;-86
2022/07/12 11:43:04;;;;;;;2.17;0.60;;;;;;;29.82;26.79;100745.28;5367979;33;34122;-86
2022/07/12 11:46:08;;;;;;;1.83;0.40;;;;;;;30.81;25.48;100721.31;5408315;27;33921;-87
2022/07/12 11:49:15;;;;;;;0.70;0.57;;;;;;;30.64;24.71;100732.16;5401004;28;32785;-85
2022/07/12 11:55:45;;;;;;;1.95;0.35;;;;;;;33.36;21.34;100727.81;5425090;27;33816;-87
2022/07/12 11:58:56;;;;;;;0.20;0.20;;;;;;;32.78;20.24;100712.06;5380981;33;33699;-86
2022/07/12 12:02:18;;;;;;;0.40;0.40;;;;;;;34.13;19.00;100708.78;5380887;33;34082;-85
2022/07/12 12:05:21;;;;;;;2.00;0.45;;;;;;;31.58;21.09;100709.53;5367690;33;33591;-86
2022/07/12 12:08:25;;;;;;;0.70;0.30;;;;;;;30.08;22.80;100708.03;5394808;33;34236;-86
2022/07/12 12:11:28;;;;;;;0.68;0.40;;;;;;;28.41;24.50;100711.25;5366553;33;33583;-87
2022/07/12 12:14:34;;;;;;;0.40;0.40;;;;;;;27.80;25.45;100719.91;5371070;33;33911;-88
2022/07/12 12:17:43;;;;;;;1.83;0.70;;;;;;;28.12;25.07;100702.84;5364726;33;34113;-85
2022/07/12 12:20:57;;;;;;;0.30;0.30;;;;;;;30.26;22.88;100698.88;5372996;33;35242;-87
2022/07/12 12:24:10;;;;;;;0.37;0.30;;;;;;;31.78;21.21;100697.16;5375542;33;34166;-86
2022/07/12 12:27:23;;;;;;;0.50;0.47;;;;;;;33.79;19.03;100690.84;5379772;33;35292;-86
2022/07/12 12:30:29;;;;;;;1.27;0.57;;;;;;;33.34;19.18;100689.03;5373647;33;34500;-86
2022/07/12 12:33:40;;;;;;;4.55;0.55;;;;;;;32.07;19.89;100684.81;5363550;33;34720;-87
2022/07/12 12:36:43;;;;;;;0.70;0.40;;;;;;;33.18;19.27;100696.22;5379481;33;35552;-85
2022/07/12 12:39:49;;;;;;;3.00;0.50;;;;;;;31.74;20.20;100692.53;5371171;33;34140;-87
2022/07/12 12:43:05;;;;;;;0.62;0.35;;;;;;;31.29;21.26;100697.87;5376428;33;34758;-87
2022/07/12 12:46:08;;;;;;;0.37;0.30;;;;;;;30.24;22.00;100701.13;5346975;33;33466;-90
2022/07/12 12:49:11;;;;;;;0.20;0.20;;;;;;;29.14;23.24;100702.00;5343906;33;32804;-90
2022/07/12 12:52:14;;;;;;;0.62;0.47;;;;;;;28.10;23.68;100705.06;5355841;33;34089;-87
2022/07/12 12:55:17;;;;;;;0.50;0.40;;;;;;;30.84;21.15;100700.44;5360396;33;35183;-86
2022/07/12 12:58:22;;;;;;;0.43;0.30;;;;;;;33.58;17.99;100699.84;5344600;33;33582;-86
2022/07/12 13:01:25;;;;;;;0.40;0.25;;;;;;;36.05;16.29;100692.97;5357120;33;34776;-86
2022/07/12 13:04:32;;;;;;;1.45;0.30;;;;;;;37.75;14.25;100685.22;5360194;33;34039;-86
2022/07/12 13:07:35;;;;;;;0.80;0.10;;;;;;;38.66;13.65;100678.22;5354163;33;206519;-87
2022/07/12 13:10:39;;;;;;;0.25;0.13;;;;;;;38.60;13.35;100668.41;5360311;33;34394;-86
2022/07/12 13:13:42;;;;;;;1.20;0.30;;;;;;;39.49;12.49;100652.94;5342491;33;33345;-86
2022/07/12 13:16:44;;;;;;;0.30;0.20;;;;;;;38.63;12.23;100654.44;5347557;33;32476;-87
2022/07/12 13:19:48;;;;;;;0.40;0.40;;;;;;;38.46;12.12;100660.41;5361946;33;34281;-86
2022/07/12 13:22:57;;;;;;;0.70;0.15;;;;;;;39.60;11.53;100648.38;5361877;33;34276;-86
2022/07/12 13:26:00;;;;;;;1.83;0.32;;;;;;;39.75;11.57;100652.34;5362870;33;33954;-86
2022/07/12 13:29:03;;;;;;;0.62;0.20;;;;;;;40.00;11.30;100656.53;5366313;33;34522;-86
2022/07/12 13:32:06;;;;;;;2.85;0.40;;;;;;;39.07;12.00;100654.37;5347152;33;33752;-86
2022/07/12 13:35:10;;;;;;;1.08;0.20;;;;;;;39.20;11.88;100653.09;5359407;33;33921;-85
2022/07/12 13:38:14;;;;;;;0.20;0.20;;;;;;;39.55;11.90;100645.84;5355679;33;34376;-86
2022/07/12 13:41:16;;;;;;;0.20;0.20;;;;;;;38.67;12.41;100646.06;5359123;33;34010;-86
2022/07/12 13:44:19;;;;;;;0.17;0.17;;;;;;;39.38;11.92;100664.00;5358704;33;33915;-86
2022/07/12 13:47:24;;;;;;;0.10;0.10;;;;;;;40.27;11.21;100651.84;5355196;33;33713;-86
2022/07/12 13:50:28;;;;;;;1.40;0.25;;;;;;;39.34;11.81;100654.63;5346987;33;33417;-87
2022/07/12 13:53:33;;;;;;;;;;;;;;;40.43;10.94;100654.59;5356409;33;34302;-86
2022/07/12 13:56:36;;;;;;;2.10;0.20;;;;;;;40.06;11.06;100645.75;5348817;33;34253;-86
2022/07/12 13:59:39;;;;;;;1.27;0.20;;;;;;;39.19;11.89;100650.63;5358008;33;34798;-86
2022/07/12 14:02:45;;;;;;;1.25;0.30;;;;;;;39.27;11.97;100646.81;5357240;33;33978;-86
2022/07/12 14:05:55;;;;;;;0.22;0.17;;;;;;;39.07;11.93;100654.37;5352410;33;33863;-85
2022/07/12 14:08:58;;;;;;;0.30;0.30;;;;;;;37.09;13.25;100651.78;5354533;33;34152;-86
2022/07/12 14:12:02;;;;;;;0.30;0.30;;;;;;;36.10;14.04;100651.53;5370785;33;35405;-86
2022/07/12 14:18:13;;;;;;;4.85;0.45;;;;;;;32.10;17.32;100661.09;5374023;33;32577;-85
2022/07/12 14:21:16;;;;;;;0.20;0.20;;;;;;;31.20;18.42;100649.69;5375243;33;34915;-85
2022/07/12 14:24:19;;;;;;;0.25;0.10;;;;;;;30.38;19.48;100652.00;5375164;33;35126;-85
2022/07/12 14:27:22;;;;;;;0.22;0.22;;;;;;;28.88;20.75;100664.53;5361185;33;34709;-85
2022/07/12 14:30:25;;;;;;;0.80;0.40;;;;;;;29.04;20.98;100656.91;5358851;33;33950;-87
2022/07/12 14:33:29;;;;;;;0.20;0.20;;;;;;;28.95;21.02;100656.69;5359309;33;33995;-87
2022/07/12 14:36:32;;;;;;;0.30;0.30;;;;;;;28.84;21.47;100657.91;5359175;33;34036;-86
2022/07/12 14:39:34;;;;;;;0.50;0.30;;;;;;;28.37;22.40;100657.50;5359078;33;33503;-87
2022/07/12 14:42:37;;;;;;;0.20;0.20;;;;;;;27.88;23.03;100657.63;5358642;33;34292;-90
2022/07/12 14:45:42;;;;;;;1.85;0.50;;;;;;;27.86;23.19;100666.19;5358602;33;33750;-90
2022/07/12 14:48:45;;;;;;;1.27;0.30;;;;;;;27.73;23.57;100658.47;5358845;33;33941;-91
2022/07/12 14:51:48;;;;;;;0.62;0.40;;;;;;;27.66;23.40;100649.69;5358492;33;33730;-87
2022/07/12 14:54:51;;;;;;;0.52;0.37;;;;;;;27.58;23.64;100646.41;5358902;33;34357;-87
2022/07/12 14:57:54;;;;;;;0.70;0.37;;;;;;;27.51;23.91;100643.13;5361113;33;33707;-87
2022/07/12 15:01:00;;;;;;;0.82;0.30;;;;;;;27.42;24.39;100647.59;5351594;33;33675;-87
2022/07/12 15:04:04;;;;;;;0.40;0.40;;;;;;;27.24;24.11;100651.00;5361565;33;34366;-86
2022/07/12 15:07:07;;;;;;;0.60;0.60;;;;;;;27.07;23.98;100651.31;5362483;33;34602;-87
2022/07/12 15:10:10;;;;;;;0.43;0.40;;;;;;;26.98;24.26;100659.34;5380328;33;34303;-87
2022/07/12 15:13:13;;;;;;;0.30;0.30;;;;;;;26.80;24.19;100649.72;5364751;33;34047;-87
2022/07/12 15:16:16;;;;;;;0.20;0.20;;;;;;;26.58;24.35;100647.25;5361333;33;33668;-87
2022/07/12 15:19:19;;;;;;;1.35;0.30;;;;;;;26.63;24.52;100646.44;5361404;33;33993;-86
2022/07/12 15:22:21;;;;;;;0.50;0.45;;;;;;;26.81;24.51;100654.13;5361601;33;33945;-87
2022/07/12 15:25:25;;;;;;;0.57;0.30;;;;;;;26.90;24.08;100649.69;5361039;33;34008;-86
2022/07/12 15:28:29;;;;;;;0.45;0.40;;;;;;;26.57;24.67;100653.06;5360723;33;34069;-87
2022/07/12 15:31:35;;;;;;;0.98;0.60;;;;;;;26.43;24.05;100650.81;5363402;33;34882;-86
2022/07/12 15:34:38;;;;;;;0.50;0.50;;;;;;;26.17;24.47;100665.72;5362702;33;34381;-87
2022/07/12 15:37:41;;;;;;;0.37;0.37;;;;;;;25.84;24.65;100664.31;5365232;33;33960;-86
2022/07/12 15:40:44;;;;;;;0.37;0.37;;;;;;;25.91;24.92;100660.16;5363892;33;33417;-87
2022/07/12 15:43:47;;;;;;;0.32;0.32;;;;;;;25.75;25.30;100661.22;5360974;33;33747;-87
2022/07/12 15:46:49;;;;;;;0.35;0.30;;;;;;;25.88;25.25;100657.97;5347958;33;33635;-86
2022/07/12 15:49:53;;;;;;;0.93;0.50;;;;;;;25.66;25.84;100671.13;5361153;33;34363;-86
2022/07/12 15:56:19;;;;;;;0.30;0.30;;;;;;;25.46;26.53;100656.16;5363436;33;33875;-87
